createdAt,value
2023-02-15T00:00:46.911Z,19.50
2023-02-15T00:03:18.937Z,19.37
2023-02-15T00:05:49.315Z,20.53
2023-02-15T00:08:21.000Z,19.50
2023-02-15T00:10:51.561Z,18.87
2023-02-15T00:13:22.156Z,21.17
2023-02-15T00:15:55.149Z,19.62
2023-02-15T00:18:28.805Z,19.50
2023-02-15T00:21:01.423Z,20.37
2023-02-15T00:23:32.008Z,20.70
2023-02-15T00:26:08.121Z,21.13
2023-02-15T00:28:41.001Z,20.12
2023-02-15T00:31:13.701Z,20.02
2023-02-15T00:33:45.004Z,20.13
2023-02-15T00:36:17.030Z,21.23
2023-02-15T00:38:48.002Z,20.97
2023-02-15T00:41:18.442Z,19.90
2023-02-15T00:43:48.984Z,20.95
2023-02-15T00:46:19.569Z,21.97
2023-02-15T00:48:50.769Z,21.43
2023-02-15T00:51:24.718Z,20.17
2023-02-15T00:53:55.483Z,21.17
2023-02-15T00:56:26.088Z,20.90
2023-02-15T00:58:56.684Z,21.30
2023-02-15T01:01:28.562Z,21.17
2023-02-15T01:03:59.224Z,21.48
2023-02-15T01:06:29.729Z,21.47
2023-02-15T01:09:00.374Z,20.27
2023-02-15T01:11:32.515Z,21.50
2023-02-15T01:14:04.869Z,21.77
2023-02-15T01:16:35.872Z,21.62
2023-02-15T01:19:07.110Z,22.63
2023-02-15T01:21:37.685Z,22.77
2023-02-15T01:24:15.346Z,22.70
2023-02-15T01:26:46.007Z,22.33
2023-02-15T01:29:17.068Z,23.73
2023-02-15T01:31:48.212Z,22.45
2023-02-15T01:34:18.930Z,23.47
2023-02-15T01:36:49.495Z,22.53
2023-02-15T01:39:20.006Z,23.17
2023-02-15T01:41:52.320Z,23.07
2023-02-15T01:44:43.642Z,23.03
2023-02-15T01:47:19.699Z,22.70
2023-02-15T01:49:51.962Z,23.13
2023-02-15T01:52:22.592Z,23.33
2023-02-15T01:54:53.601Z,23.83
2023-02-15T01:57:27.337Z,24.53
2023-02-15T02:00:00.751Z,25.30
2023-02-15T02:02:31.480Z,25.00
2023-02-15T02:05:27.844Z,25.12
2023-02-15T02:08:01.016Z,25.50
2023-02-15T02:10:31.794Z,25.25
2023-02-15T02:13:05.414Z,24.20
2023-02-15T02:15:47.673Z,24.70
2023-02-15T02:18:56.480Z,25.13
2023-02-15T02:21:49.041Z,26.20
2023-02-15T02:24:42.644Z,26.17
2023-02-15T02:27:38.640Z,26.13
2023-02-15T02:30:35.413Z,25.87
2023-02-15T02:33:32.136Z,25.82
2023-02-15T02:36:39.521Z,25.65
2023-02-15T02:39:46.263Z,25.87
2023-02-15T02:42:25.814Z,25.03
2023-02-15T02:45:04.931Z,26.50
2023-02-15T02:47:47.202Z,26.57
2023-02-15T02:50:26.411Z,25.33
2023-02-15T02:52:58.680Z,25.77
2023-02-15T02:55:44.233Z,26.23
2023-02-15T02:58:35.801Z,24.75
2023-02-15T03:01:18.269Z,25.20
2023-02-15T03:03:51.762Z,26.57
2023-02-15T03:06:25.284Z,27.30
2023-02-15T03:09:01.626Z,27.00
2023-02-15T03:11:33.864Z,27.90
2023-02-15T03:14:04.638Z,27.17
2023-02-15T03:16:36.103Z,28.37
2023-02-15T03:19:23.346Z,26.73
2023-02-15T03:22:01.070Z,29.17
2023-02-15T03:24:37.226Z,28.23
2023-02-15T03:27:11.040Z,28.23
2023-02-15T03:29:41.716Z,29.03
2023-02-15T03:32:14.192Z,30.03
2023-02-15T03:34:45.757Z,29.03
2023-02-15T03:37:19.410Z,30.97
2023-02-15T03:40:06.074Z,29.07
2023-02-15T03:42:39.720Z,32.33
2023-02-15T03:45:16.304Z,28.00
2023-02-15T03:47:49.680Z,30.82
2023-02-15T03:50:42.650Z,29.37
2023-02-15T03:53:17.177Z,29.47
2023-02-15T03:55:53.050Z,30.13
2023-02-15T03:58:41.429Z,28.90
2023-02-15T04:01:32.809Z,29.47
2023-02-15T04:04:09.244Z,28.80
2023-02-15T04:06:41.033Z,28.60
2023-02-15T04:09:29.561Z,28.73
2023-02-15T04:12:05.729Z,29.13
2023-02-15T04:14:54.142Z,27.93
2023-02-15T04:17:24.771Z,28.70
2023-02-15T04:20:13.240Z,30.67
2023-02-15T04:23:02.089Z,28.87
2023-02-15T04:25:32.666Z,29.73
2023-02-15T04:28:03.192Z,29.73
2023-02-15T04:30:33.755Z,29.70
2023-02-15T04:33:04.416Z,30.43
2023-02-15T04:35:36.420Z,30.30
2023-02-15T04:38:06.907Z,29.73
2023-02-15T04:40:37.357Z,29.97
2023-02-15T04:43:07.860Z,28.30
2023-02-15T04:45:38.413Z,29.53
2023-02-15T04:48:08.940Z,27.93
2023-02-15T04:50:39.512Z,28.40
2023-02-15T04:53:10.077Z,30.03
2023-02-15T04:55:40.495Z,28.40
2023-02-15T04:58:11.072Z,28.03
2023-02-15T05:00:41.705Z,28.37
2023-02-15T05:03:12.152Z,28.77
2023-02-15T05:05:42.755Z,30.10
2023-02-15T05:08:13.152Z,29.13
2023-02-15T05:10:43.729Z,28.53
2023-02-15T05:13:14.073Z,29.17
2023-02-15T05:15:50.096Z,28.77
2023-02-15T05:18:22.292Z,28.07
2023-02-15T05:20:52.856Z,28.50
2023-02-15T05:23:23.424Z,28.57
2023-02-15T05:26:12.252Z,29.17
2023-02-15T05:28:43.668Z,26.57
2023-02-15T05:31:20.255Z,28.53
2023-02-15T05:33:50.855Z,27.50
2023-02-15T05:36:21.514Z,28.10
2023-02-15T05:38:52.032Z,29.70
2023-02-15T05:41:23.065Z,26.97
2023-02-15T05:43:53.378Z,29.70
2023-02-15T05:46:23.798Z,27.50
2023-02-15T05:48:54.367Z,28.87
2023-02-15T05:51:24.979Z,28.90
2023-02-15T05:53:55.498Z,28.97
2023-02-15T05:56:26.142Z,28.83
2023-02-15T05:58:56.500Z,27.40
2023-02-15T06:01:27.049Z,29.63
2023-02-15T06:03:58.654Z,28.50
2023-02-15T06:06:29.317Z,28.53
2023-02-15T06:08:59.730Z,28.10
2023-02-15T06:11:30.261Z,28.43
2023-02-15T06:14:00.784Z,28.40
2023-02-15T06:16:31.507Z,30.27
2023-02-15T06:19:03.279Z,28.67
2023-02-15T06:21:33.721Z,28.73
2023-02-15T06:24:04.412Z,28.23
2023-02-15T06:26:36.608Z,30.17
2023-02-15T06:29:07.180Z,28.60
2023-02-15T06:31:37.850Z,30.43
2023-02-15T06:34:08.559Z,29.70
2023-02-15T06:36:39.274Z,31.20
2023-02-15T06:39:10.131Z,30.13
2023-02-15T06:41:46.229Z,31.17
2023-02-15T06:44:19.528Z,30.73
2023-02-15T06:46:50.156Z,30.20
2023-02-15T06:49:20.770Z,32.13
2023-02-15T06:51:51.448Z,32.93
2023-02-15T06:54:22.466Z,31.13
2023-02-15T06:56:53.616Z,32.33
2023-02-15T06:59:24.186Z,32.43
2023-02-15T07:01:54.680Z,34.63
2023-02-15T07:04:25.571Z,32.13
2023-02-15T07:06:56.217Z,33.90
2023-02-15T07:09:26.894Z,32.17
2023-02-15T07:12:16.894Z,31.17
2023-02-15T07:14:48.456Z,31.23
2023-02-15T07:17:36.240Z,30.57
2023-02-15T07:19:52.469Z,30.90
2023-02-15T07:22:22.856Z,30.80
2023-02-15T07:24:55.290Z,31.07
2023-02-15T07:27:26.461Z,29.53
2023-02-15T07:29:57.547Z,28.83
2023-02-15T07:32:32.633Z,31.63
2023-02-15T07:35:04.192Z,31.37
2023-02-15T07:37:35.814Z,30.80
2023-02-15T07:40:08.836Z,28.93
2023-02-15T07:42:41.268Z,32.20
2023-02-15T07:45:11.797Z,31.37
2023-02-15T07:47:42.314Z,31.00
2023-02-15T07:50:12.937Z,30.87
2023-02-15T07:52:44.202Z,31.73
2023-02-15T07:55:16.956Z,31.37
2023-02-15T07:57:48.520Z,33.07
2023-02-15T08:00:23.171Z,31.40
2023-02-15T08:03:14.703Z,29.27
2023-02-15T08:05:47.122Z,29.17
2023-02-15T08:08:33.169Z,29.03
2023-02-15T08:11:29.469Z,27.70
2023-02-15T08:14:12.221Z,26.73
2023-02-15T08:16:54.160Z,26.40
2023-02-15T08:19:27.720Z,26.83
2023-02-15T08:22:00.811Z,25.73
2023-02-15T08:24:40.526Z,27.47
2023-02-15T08:27:12.616Z,27.60
2023-02-15T08:29:43.247Z,26.10
2023-02-15T08:32:14.969Z,27.13
2023-02-15T08:34:45.637Z,26.80
2023-02-15T08:37:16.500Z,26.20
2023-02-15T08:39:46.926Z,27.03
2023-02-15T08:42:19.071Z,25.23
2023-02-15T08:44:52.633Z,28.00
2023-02-15T08:47:23.399Z,26.50
2023-02-15T08:49:54.205Z,26.50
2023-02-15T08:52:24.627Z,27.83
2023-02-15T08:54:56.026Z,26.43
2023-02-15T08:57:26.794Z,26.03
2023-02-15T08:59:57.197Z,26.17
2023-02-15T09:04:53.769Z,26.67
2023-02-15T09:07:24.234Z,26.83
2023-02-15T09:09:56.965Z,27.60
2023-02-15T09:12:27.388Z,24.73
2023-02-15T09:14:58.957Z,23.63
2023-02-15T09:17:29.522Z,25.00
2023-02-15T09:20:01.551Z,24.03
2023-02-15T09:22:32.257Z,24.50
2023-02-15T09:25:03.962Z,23.63
2023-02-15T09:27:37.320Z,24.17
2023-02-15T09:30:09.340Z,24.83
2023-02-15T09:32:40.167Z,24.23
2023-02-15T09:35:11.033Z,24.73
2023-02-15T09:37:44.345Z,24.50
2023-02-15T09:40:18.436Z,23.87
2023-02-15T09:46:33.143Z,23.10
2023-02-15T09:49:06.713Z,25.23
2023-02-15T09:51:41.393Z,24.83
2023-02-15T09:54:26.936Z,24.40
2023-02-15T09:57:09.336Z,23.67
2023-02-15T09:59:55.066Z,23.63
2023-02-15T10:02:37.795Z,24.13
2023-02-15T10:05:24.381Z,23.50
2023-02-15T10:08:02.659Z,23.60
2023-02-15T10:10:41.031Z,23.17
2023-02-15T10:13:20.298Z,24.40
2023-02-15T10:15:56.827Z,24.70
2023-02-15T10:18:33.750Z,24.80
2023-02-15T10:21:34.023Z,25.47
2023-02-15T10:24:08.252Z,23.73
2023-02-15T10:26:46.451Z,23.63
2023-02-15T10:29:29.863Z,23.40
2023-02-15T10:32:09.288Z,25.20
2023-02-15T10:34:44.633Z,24.70
2023-02-15T10:37:34.603Z,24.77
2023-02-15T10:40:15.099Z,24.60
2023-02-15T10:43:07.293Z,23.63
2023-02-15T10:46:05.073Z,23.70
2023-02-15T10:48:47.276Z,24.23
2023-02-15T10:51:27.969Z,23.33
2023-02-15T10:54:30.869Z,24.13
2023-02-15T10:57:07.149Z,23.10
2023-02-15T10:59:57.077Z,24.77
2023-02-15T11:02:48.991Z,23.13
2023-02-15T11:05:37.642Z,21.97
2023-02-15T11:08:11.284Z,22.57
2023-02-15T11:10:56.661Z,22.03
2023-02-15T11:13:30.326Z,22.20
2023-02-15T11:16:07.261Z,22.73
2023-02-15T11:18:43.529Z,23.17
2023-02-15T11:21:23.175Z,23.43
2023-02-15T11:23:55.297Z,22.97
2023-02-15T11:26:32.720Z,23.27
2023-02-15T11:29:21.100Z,22.87
2023-02-15T11:32:00.810Z,22.83
2023-02-15T11:34:39.940Z,22.02
2023-02-15T11:37:16.268Z,21.90
2023-02-15T11:39:48.881Z,23.30
2023-02-15T11:42:24.053Z,22.63
2023-02-15T11:45:26.155Z,21.37
2023-02-15T11:47:58.882Z,21.13
2023-02-15T11:50:32.908Z,21.40
2023-02-15T11:53:15.900Z,21.77
2023-02-15T11:55:53.068Z,21.83
2023-02-15T11:58:29.494Z,21.97
2023-02-15T12:01:21.354Z,21.40
2023-02-15T12:03:57.134Z,22.40
2023-02-15T12:06:46.006Z,21.67
2023-02-15T12:09:24.531Z,21.52
2023-02-15T12:11:59.211Z,21.02
2023-02-15T12:14:34.538Z,20.80
2023-02-15T12:17:05.141Z,21.95
2023-02-15T12:19:45.268Z,21.70
2023-02-15T12:22:37.632Z,22.55
2023-02-15T12:25:40.119Z,20.47
2023-02-15T12:28:41.175Z,21.45
2023-02-15T12:31:26.708Z,21.10
2023-02-15T12:34:01.653Z,20.25
2023-02-15T12:36:37.918Z,20.07
2023-02-15T12:39:17.802Z,19.57
2023-02-15T12:42:05.961Z,21.33
2023-02-15T12:44:42.115Z,20.03
2023-02-15T12:47:28.856Z,20.08
2023-02-15T12:50:22.230Z,19.17
2023-02-15T12:53:09.720Z,19.17
2023-02-15T12:55:33.175Z,19.40
2023-02-15T12:58:15.917Z,19.07
2023-02-15T13:00:48.653Z,18.80
2023-02-15T13:03:25.799Z,19.73
2023-02-15T13:06:01.744Z,17.55
2023-02-15T13:08:47.041Z,17.57
2023-02-15T13:11:16.100Z,17.82
2023-02-15T13:14:01.494Z,17.65
2023-02-15T13:16:44.225Z,19.50
2023-02-15T13:19:37.388Z,17.30
2023-02-15T13:22:12.727Z,16.30
2023-02-15T13:24:53.890Z,16.75
2023-02-15T13:27:27.503Z,17.42
2023-02-15T13:30:03.864Z,17.87
2023-02-15T13:32:41.679Z,16.90
2023-02-15T13:35:18.292Z,16.12
2023-02-15T13:38:00.803Z,17.00
2023-02-15T13:40:41.722Z,16.52
2023-02-15T13:43:36.449Z,17.42
2023-02-15T13:46:11.400Z,18.32
2023-02-15T13:48:58.393Z,16.40
2023-02-15T13:51:47.041Z,16.23
2023-02-15T13:54:48.402Z,16.48
2023-02-15T13:57:58.455Z,18.40
2023-02-15T14:00:36.529Z,16.57
2023-02-15T14:03:36.374Z,16.95
2023-02-15T14:06:32.768Z,16.07
2023-02-15T14:09:27.456Z,16.12
2023-02-15T14:12:19.821Z,16.60
2023-02-15T14:15:07.667Z,17.55
2023-02-15T14:17:58.564Z,17.12
2023-02-15T14:20:38.684Z,16.50
2023-02-15T14:23:22.960Z,15.75
2023-02-15T14:26:03.157Z,16.42
2023-02-15T14:28:57.020Z,17.35
2023-02-15T14:31:36.921Z,17.75
2023-02-15T14:34:12.997Z,18.10
2023-02-15T14:36:46.267Z,17.15
2023-02-15T14:39:43.919Z,17.23
2023-02-15T14:42:18.673Z,16.30
2023-02-15T14:45:02.626Z,16.10
2023-02-15T14:47:42.171Z,16.77
2023-02-15T14:50:38.456Z,17.27
2023-02-15T14:53:32.041Z,17.32
2023-02-15T14:56:18.470Z,15.88
2023-02-15T14:58:57.473Z,14.93
2023-02-15T15:01:38.263Z,14.73
2023-02-15T15:04:15.234Z,16.23
2023-02-15T15:06:49.407Z,15.78
2023-02-15T15:09:26.092Z,16.13
2023-02-15T15:12:16.608Z,18.15
2023-02-15T15:14:47.209Z,17.10
2023-02-15T15:17:40.602Z,17.42
2023-02-15T15:20:20.243Z,15.98
2023-02-15T15:22:53.886Z,16.90
2023-02-15T15:25:45.929Z,17.32
2023-02-15T15:28:38.870Z,16.07
2023-02-15T15:31:31.892Z,16.67
2023-02-15T15:34:05.466Z,17.07
2023-02-15T15:36:51.043Z,17.57
2023-02-15T15:39:58.189Z,17.02
2023-02-15T15:42:50.558Z,16.50
2023-02-15T15:45:27.304Z,16.40
2023-02-15T15:48:17.251Z,16.42
2023-02-15T15:50:53.249Z,17.27
2023-02-15T15:53:27.251Z,16.52
2023-02-15T15:56:03.718Z,16.52
2023-02-15T15:58:36.050Z,16.97
2023-02-15T16:01:19.541Z,16.27
2023-02-15T16:03:56.918Z,16.23
2023-02-15T16:06:36.235Z,15.72
2023-02-15T16:09:21.985Z,16.17
2023-02-15T16:12:07.090Z,16.17
2023-02-15T16:14:41.235Z,16.97
2023-02-15T16:17:18.350Z,16.85
2023-02-15T16:19:50.417Z,18.30
2023-02-15T16:22:27.605Z,19.23
2023-02-15T16:25:04.186Z,18.48
2023-02-15T16:27:46.444Z,18.30
2023-02-15T16:30:27.064Z,19.30
2023-02-15T16:33:06.797Z,18.95
2023-02-15T16:35:43.878Z,18.35
2023-02-15T16:38:17.568Z,18.57
2023-02-15T16:40:58.688Z,17.98
2023-02-15T16:43:34.253Z,18.07
2023-02-15T16:46:11.278Z,18.48
2023-02-15T16:48:44.788Z,18.85
2023-02-15T16:51:26.072Z,18.57
2023-02-15T16:54:00.536Z,19.45
2023-02-15T16:56:33.325Z,18.77
2023-02-15T16:59:04.514Z,18.90
2023-02-15T17:01:35.756Z,19.07
2023-02-15T17:04:24.876Z,18.17
2023-02-15T17:07:10.716Z,20.50
2023-02-15T17:09:57.023Z,22.23
2023-02-15T17:12:47.082Z,21.40
2023-02-15T17:15:31.840Z,19.90
2023-02-15T17:18:21.245Z,21.75
2023-02-15T17:20:58.499Z,22.85
2023-02-15T17:23:39.670Z,21.52
2023-02-15T17:26:33.422Z,18.77
2023-02-15T17:29:25.965Z,20.48
2023-02-15T17:32:03.192Z,20.40
2023-02-15T17:34:52.229Z,22.25
2023-02-15T17:37:32.612Z,22.17
2023-02-15T17:40:16.129Z,20.88
2023-02-15T17:42:47.610Z,21.90
2023-02-15T17:45:18.835Z,21.57
2023-02-15T17:47:51.323Z,22.13
2023-02-15T17:50:24.983Z,22.58
2023-02-15T17:52:59.738Z,22.77
2023-02-15T17:55:38.740Z,21.73
2023-02-15T17:58:19.583Z,21.57
2023-02-15T18:01:21.122Z,20.90
2023-02-15T18:04:11.673Z,25.15
2023-02-15T18:07:04.281Z,25.47
2023-02-15T18:09:55.936Z,23.03
2023-02-15T18:12:36.746Z,24.60
2023-02-15T18:15:14.343Z,22.50
2023-02-15T18:17:49.897Z,23.35
2023-02-15T18:20:24.834Z,23.57
2023-02-15T18:22:55.369Z,23.67
2023-02-15T18:25:26.366Z,23.22
2023-02-15T18:27:57.248Z,23.10
2023-02-15T18:30:28.394Z,22.40
2023-02-15T18:33:00.400Z,23.60
2023-02-15T18:35:34.185Z,23.30
2023-02-15T18:38:04.773Z,23.40
2023-02-15T18:40:36.662Z,23.10
2023-02-15T18:43:08.884Z,22.87
2023-02-15T18:45:41.147Z,22.33
2023-02-15T18:48:13.348Z,26.67
2023-02-15T18:50:43.903Z,26.15
2023-02-15T18:53:23.008Z,26.43
2023-02-15T18:55:54.950Z,25.33
2023-02-15T18:58:27.705Z,26.77
2023-02-15T19:00:59.982Z,26.03
2023-02-15T19:03:31.158Z,31.20
2023-02-15T19:06:03.933Z,33.57
2023-02-15T19:08:36.256Z,34.70
2023-02-15T19:11:15.723Z,32.10
2023-02-15T19:13:48.952Z,27.50
2023-02-15T19:16:36.377Z,29.25
2023-02-15T19:19:09.976Z,28.43
2023-02-15T19:22:03.821Z,27.00
2023-02-15T19:24:40.621Z,26.37
2023-02-15T19:27:33.659Z,25.85
2023-02-15T19:30:10.167Z,26.00
2023-02-15T19:32:43.884Z,25.07
2023-02-15T19:35:23.016Z,26.40
2023-02-15T19:37:56.486Z,24.83
2023-02-15T19:40:35.337Z,26.93
2023-02-15T19:43:08.966Z,27.10
2023-02-15T19:45:42.247Z,25.90
2023-02-15T19:48:18.563Z,25.70
2023-02-15T19:50:50.015Z,25.83
2023-02-15T19:53:29.713Z,27.67
2023-02-15T19:56:01.433Z,25.37
2023-02-15T19:58:33.582Z,26.07
2023-02-15T20:01:04.299Z,27.13
2023-02-15T20:03:35.169Z,28.50
2023-02-15T20:06:06.664Z,29.27
2023-02-15T20:08:37.280Z,27.63
2023-02-15T20:11:11.050Z,27.00
2023-02-15T20:13:41.701Z,26.48
2023-02-15T20:16:14.457Z,27.43
2023-02-15T20:18:46.557Z,27.27
2023-02-15T20:21:18.794Z,27.07
2023-02-15T20:23:49.324Z,27.63
2023-02-15T20:26:22.641Z,27.60
2023-02-15T20:28:54.121Z,28.97
2023-02-15T20:31:25.862Z,30.90
2023-02-15T20:33:58.716Z,28.83
2023-02-15T20:36:30.279Z,30.20
2023-02-15T20:39:05.225Z,30.13
2023-02-15T20:41:38.694Z,29.53
2023-02-15T20:44:31.740Z,29.07
2023-02-15T20:47:03.871Z,32.20
2023-02-15T20:49:35.484Z,31.10
2023-02-15T20:52:09.726Z,30.53
2023-02-15T20:54:41.253Z,31.37
2023-02-15T20:57:16.769Z,31.10
2023-02-15T20:59:48.739Z,29.47
2023-02-15T21:02:23.436Z,29.17
2023-02-15T21:04:55.833Z,28.80
2023-02-15T21:07:26.470Z,29.53
2023-02-15T21:09:56.938Z,29.83
2023-02-15T21:12:38.757Z,29.57
2023-02-15T21:15:31.796Z,29.67
2023-02-15T21:18:05.888Z,28.87
2023-02-15T21:20:37.142Z,28.90
2023-02-15T21:23:15.802Z,30.30
2023-02-15T21:25:48.514Z,30.83
2023-02-15T21:28:23.763Z,30.60
2023-02-15T21:30:58.425Z,30.63
2023-02-15T21:33:30.031Z,28.83
2023-02-15T21:36:00.797Z,30.67
2023-02-15T21:38:35.926Z,30.10
2023-02-15T21:41:28.208Z,30.70
2023-02-15T21:44:17.077Z,30.30
2023-02-15T21:47:05.463Z,31.27
2023-02-15T21:49:41.358Z,33.37
2023-02-15T21:52:15.984Z,34.47
2023-02-15T21:54:47.512Z,36.90
2023-02-15T21:57:22.154Z,35.73
2023-02-15T21:59:54.963Z,36.27
2023-02-15T22:02:31.525Z,33.53
2023-02-15T22:05:02.082Z,36.13
2023-02-15T22:07:32.584Z,34.07
2023-02-15T22:10:03.935Z,33.43
2023-02-15T22:12:37.906Z,34.43
2023-02-15T22:15:15.144Z,35.20
2023-02-15T22:17:46.042Z,34.47
2023-02-15T22:20:20.827Z,34.40
2023-02-15T22:22:54.684Z,34.83
2023-02-15T22:25:29.051Z,33.93
2023-02-15T22:28:01.669Z,32.43
2023-02-15T22:30:37.856Z,33.83
2023-02-15T22:33:11.220Z,34.83
2023-02-15T22:35:50.354Z,33.70
2023-02-15T22:38:14.963Z,32.07
2023-02-15T22:40:47.678Z,35.37
2023-02-15T22:43:33.314Z,35.83
2023-02-15T22:46:06.522Z,33.27
2023-02-15T22:48:38.302Z,33.73
2023-02-15T22:51:10.506Z,34.47
2023-02-15T22:53:41.039Z,33.40
2023-02-15T22:56:15.165Z,33.43
2023-02-15T22:58:48.418Z,32.30
2023-02-15T23:01:25.042Z,32.80
2023-02-15T23:04:01.208Z,33.17
2023-02-15T23:06:39.175Z,32.43
2023-02-15T23:09:12.335Z,31.67
2023-02-15T23:11:45.415Z,31.73
2023-02-15T23:14:31.013Z,30.30
2023-02-15T23:17:03.903Z,31.03
2023-02-15T23:19:36.479Z,30.47
2023-02-15T23:22:08.615Z,29.63
2023-02-15T23:24:41.708Z,31.23
2023-02-15T23:27:32.804Z,30.80
2023-02-15T23:30:08.392Z,31.30
2023-02-15T23:32:39.189Z,30.60
2023-02-15T23:35:17.946Z,31.13
2023-02-15T23:37:49.081Z,30.83
2023-02-15T23:40:43.723Z,30.87
2023-02-15T23:43:18.390Z,31.90
2023-02-15T23:45:50.974Z,29.63
2023-02-15T23:48:30.113Z,30.40
2023-02-15T23:51:03.348Z,31.27
2023-02-15T23:53:36.745Z,30.40
2023-02-15T23:56:08.195Z,31.30
2023-02-15T23:58:41.729Z,31.80
